Time;durP1;ratioP1;P1;durP2;ratioP2;P2;SDS_P1;SDS_P2;PMS_P1;PMS_P2;Temp;Humidity;BMP_temperature;BMP_pressure;BME280_temperature;BME280_humidity;BME280_pressure;Samples;Min_cycle;Max_cycle;Signal;HPM_P1;HPM_P2
2021/08/05 00:01:36;;;;;;;0.00;0.00;;;14.70;99.90;;;;;;5034232;28;20369;-77
2021/08/05 00:04:02;;;;;;;0.10;0.10;;;14.90;99.90;;;;;;5034219;28;20033;-77
2021/08/05 00:06:28;;;;;;;0.05;0.05;;;15.10;99.90;;;;;;5052127;28;20389;-76
2021/08/05 00:08:54;;;;;;;0.03;0.03;;;15.10;99.90;;;;;;5051865;28;20021;-77
2021/08/05 00:11:20;;;;;;;0.08;0.08;;;14.90;99.90;;;;;;5052614;28;20051;-77
2021/08/05 00:13:45;;;;;;;0.10;0.10;;;14.90;99.90;;;;;;5055653;28;20207;-77
2021/08/05 00:16:11;;;;;;;0.00;0.00;;;15.10;99.90;;;;;;5056289;28;20028;-77
2021/08/05 00:18:37;;;;;;;0.00;0.00;;;15.10;99.90;;;;;;5055844;28;20465;-76
2021/08/05 00:21:03;;;;;;;0.00;0.00;;;15.10;99.90;;;;;;5055558;28;20473;-77
2021/08/05 00:23:28;;;;;;;0.10;0.10;;;15.10;99.90;;;;;;5054330;28;20017;-77
2021/08/05 00:25:54;;;;;;;0.10;0.10;;;15.00;99.90;;;;;;5054474;28;20029;-76
2021/08/05 00:28:20;;;;;;;0.20;0.20;;;14.90;99.90;;;;;;5054339;28;20037;-76
2021/08/05 00:30:46;;;;;;;0.10;0.10;;;15.00;99.90;;;;;;5054944;28;20055;-77
2021/08/05 00:33:11;;;;;;;0.10;0.10;;;15.00;99.90;;;;;;5054183;28;20112;-77
2021/08/05 00:35:37;;;;;;;0.10;0.10;;;15.10;99.90;;;;;;5054235;28;20021;-77
2021/08/05 00:38:03;;;;;;;0.03;0.03;;;15.30;99.90;;;;;;5054413;28;20039;-77
2021/08/05 00:40:29;;;;;;;0.10;0.10;;;15.30;99.90;;;;;;5055689;28;20107;-77
2021/08/05 00:42:54;;;;;;;0.03;0.03;;;15.20;99.90;;;;;;5055829;28;20033;-76
2021/08/05 00:45:20;;;;;;;0.10;0.10;;;15.30;99.90;;;;;;5055738;28;20032;-77
2021/08/05 00:47:46;;;;;;;0.10;0.10;;;15.20;99.90;;;;;;5055283;28;20107;-77
2021/08/05 00:50:12;;;;;;;0.10;0.10;;;15.10;99.90;;;;;;5037600;28;20025;-77
2021/08/05 00:52:38;;;;;;;0.10;0.10;;;15.10;99.90;;;;;;5037080;28;20092;-77
2021/08/05 00:55:05;;;;;;;0.00;0.00;;;15.10;99.90;;;;;;5055063;28;20029;-77
2021/08/05 00:57:31;;;;;;;0.20;0.20;;;14.90;99.90;;;;;;5053919;28;20402;-77
2021/08/05 00:59:57;;;;;;;0.03;0.03;;;14.70;99.90;;;;;;5036916;28;20017;-76
2021/08/05 01:02:30;;;;;;;0.10;0.10;;;14.70;99.90;;;;;;5053583;28;20473;-77
2021/08/05 01:04:56;;;;;;;0.10;0.10;;;14.80;99.90;;;;;;5055106;28;20104;-77
2021/08/05 01:07:25;;;;;;;0.08;0.08;;;14.80;99.90;;;;;;5054854;28;20029;-77
2021/08/05 01:10:06;;;;;;;0.00;0.00;;;15.00;99.90;;;;;;5053698;28;20025;-77
2021/08/05 01:12:44;;;;;;;0.10;0.10;;;15.00;99.90;;;;;;5053466;28;20028;-77
2021/08/05 01:15:24;;;;;;;0.08;0.08;;;15.10;99.90;;;;;;5036990;28;20040;-77
2021/08/05 01:18:14;;;;;;;0.00;0.00;;;15.20;99.90;;;;;;5053479;28;20033;-76
2021/08/05 01:20:42;;;;;;;0.00;0.00;;;15.30;99.90;;;;;;5053435;28;20025;-76
2021/08/05 01:23:29;;;;;;;0.10;0.10;;;15.20;99.90;;;;;;5053453;28;20480;-77
2021/08/05 01:25:58;;;;;;;0.10;0.10;;;15.00;99.90;;;;;;5053112;28;20021;-77
2021/08/05 01:28:24;;;;;;;0.08;0.08;;;14.60;99.90;;;;;;5052966;28;20374;-76
2021/08/05 01:30:52;;;;;;;0.00;0.00;;;14.70;99.90;;;;;;5053306;28;20066;-77
2021/08/05 01:33:21;;;;;;;0.00;0.00;;;14.90;99.90;;;;;;5053032;28;20021;-77
2021/08/05 01:35:51;;;;;;;0.05;0.05;;;15.10;99.90;;;;;;5053047;28;20021;-77
2021/08/05 01:38:18;;;;;;;0.00;0.00;;;15.30;99.90;;;;;;5054814;28;20435;-77
2021/08/05 01:40:49;;;;;;;0.10;0.10;;;15.20;99.90;;;;;;5054394;28;20049;-76
2021/08/05 01:43:15;;;;;;;0.10;0.10;;;15.20;99.90;;;;;;5052852;28;20021;-77
2021/08/05 01:45:42;;;;;;;0.00;0.00;;;15.20;99.90;;;;;;5052839;28;20032;-77
2021/08/05 01:48:12;;;;;;;0.00;0.00;;;15.20;99.90;;;;;;5052748;28;20036;-77
2021/08/05 01:50:38;;;;;;;0.00;0.00;;;15.30;99.90;;;;;;5035875;28;20018;-77
2021/08/05 01:53:06;;;;;;;0.10;0.10;;;15.30;99.90;;;;;;5053711;28;20049;-76
2021/08/05 01:55:32;;;;;;;0.10;0.10;;;15.30;99.90;;;;;;5052534;28;20053;-77
2021/08/05 01:57:58;;;;;;;0.10;0.10;;;15.30;99.90;;;;;;5054012;28;20056;-77
2021/08/05 02:00:25;;;;;;;0.05;0.05;;;15.20;99.90;;;;;;5036112;28;20031;-77
2021/08/05 02:02:53;;;;;;;0.08;0.08;;;15.30;99.90;;;;;;5053717;28;20025;-76
2021/08/05 02:05:55;;;;;;;0.03;0.03;;;15.30;99.90;;;;;;5053850;28;20484;-76
2021/08/05 02:08:31;;;;;;;0.10;0.10;;;15.30;99.90;;;;;;5053725;28;20032;-77
2021/08/05 02:10:58;;;;;;;0.00;0.00;;;15.30;99.90;;;;;;5052458;28;20021;-77
2021/08/05 02:13:32;;;;;;;0.00;0.00;;;15.40;99.90;;;;;;5035539;28;20029;-77
2021/08/05 02:16:02;;;;;;;0.00;0.00;;;15.30;99.90;;;;;;5053662;28;20024;-77
2021/08/05 02:18:30;;;;;;;0.10;0.10;;;15.40;99.90;;;;;;5035928;28;20178;-77
2021/08/05 02:20:57;;;;;;;0.00;0.00;;;15.40;99.90;;;;;;5052092;28;20021;-77
2021/08/05 02:23:24;;;;;;;0.00;0.00;;;15.20;99.90;;;;;;5052664;28;20047;-77
2021/08/05 02:25:51;;;;;;;0.10;0.10;;;15.30;99.90;;;;;;5052412;28;20025;-77
2021/08/05 02:28:19;;;;;;;0.00;0.00;;;15.30;99.90;;;;;;5052703;28;20025;-77
2021/08/05 02:30:47;;;;;;;0.10;0.10;;;15.40;99.90;;;;;;5064002;23;20084;-75
2021/08/05 02:33:14;;;;;;;0.00;0.00;;;15.30;99.90;;;;;;5052795;28;20029;-74
2021/08/05 02:35:43;;;;;;;0.10;0.10;;;15.20;99.90;;;;;;5052398;28;20379;-74
2021/08/05 02:38:09;;;;;;;0.00;0.00;;;15.10;99.90;;;;;;5052802;28;20053;-74
2021/08/05 02:40:36;;;;;;;0.00;0.00;;;15.00;99.90;;;;;;5051405;28;20036;-74
2021/08/05 02:43:04;;;;;;;0.10;0.10;;;14.90;99.90;;;;;;5052299;28;20074;-74
2021/08/05 02:45:32;;;;;;;0.03;0.03;;;14.90;99.90;;;;;;5052580;28;20107;-75
2021/08/05 02:48:00;;;;;;;0.00;0.00;;;14.80;99.90;;;;;;5051183;28;20025;-75
2021/08/05 02:50:28;;;;;;;0.10;0.10;;;14.60;99.90;;;;;;5051261;28;20045;-75
2021/08/05 02:52:55;;;;;;;0.05;0.05;;;14.70;99.90;;;;;;5051939;28;20032;-75
2021/08/05 02:55:23;;;;;;;0.10;0.10;;;14.70;99.90;;;;;;5051185;28;20021;-74
2021/08/05 02:57:52;;;;;;;0.10;0.10;;;14.80;99.90;;;;;;5051069;28;20025;-74
2021/08/05 03:00:18;;;;;;;0.00;0.00;;;14.90;99.90;;;;;;5050993;28;20025;-74
2021/08/05 03:02:45;;;;;;;0.03;0.03;;;15.00;99.90;;;;;;5052130;28;20096;-75
2021/08/05 03:05:13;;;;;;;0.10;0.10;;;15.20;99.90;;;;;;5052153;28;20017;-75
2021/08/05 03:07:39;;;;;;;0.00;0.00;;;15.30;99.90;;;;;;5050940;28;20411;-74
2021/08/05 03:10:06;;;;;;;0.00;0.00;;;15.30;99.90;;;;;;5052313;28;20017;-74
2021/08/05 03:12:33;;;;;;;0.10;0.10;;;15.20;99.90;;;;;;5051920;28;20440;-75
2021/08/05 03:14:58;;;;;;;0.00;0.00;;;15.30;99.90;;;;;;5052060;28;20037;-74
2021/08/05 03:17:24;;;;;;;0.05;0.05;;;15.30;99.90;;;;;;5052055;28;20068;-75
2021/08/05 03:19:50;;;;;;;0.03;0.03;;;15.20;99.90;;;;;;5050708;28;20033;-75
2021/08/05 03:22:16;;;;;;;0.00;0.00;;;15.30;99.90;;;;;;5051871;28;20492;-75
2021/08/05 03:24:42;;;;;;;0.10;0.10;;;15.30;99.90;;;;;;5050745;28;20048;-75
2021/08/05 03:27:11;;;;;;;0.00;0.00;;;15.40;99.90;;;;;;5033978;28;20079;-75
2021/08/05 03:29:38;;;;;;;0.00;0.00;;;15.50;99.90;;;;;;5052047;28;20037;-75
2021/08/05 03:32:04;;;;;;;0.00;0.00;;;15.40;99.90;;;;;;5033830;28;20495;-75
2021/08/05 03:34:30;;;;;;;0.10;0.10;;;15.40;99.90;;;;;;5050549;28;20076;-75
2021/08/05 03:36:56;;;;;;;0.10;0.10;;;15.50;99.90;;;;;;5051805;28;20477;-75
2021/08/05 03:39:22;;;;;;;0.00;0.00;;;15.40;99.90;;;;;;5051943;28;20025;-75
2021/08/05 03:41:49;;;;;;;0.00;0.00;;;15.40;99.90;;;;;;5051709;28;20028;-75
2021/08/05 03:44:15;;;;;;;0.00;0.00;;;15.40;99.90;;;;;;5051659;28;20028;-75
2021/08/05 03:46:40;;;;;;;0.00;0.00;;;15.40;99.90;;;;;;5052065;28;20025;-75
2021/08/05 03:49:06;;;;;;;0.03;0.03;;;15.40;99.90;;;;;;5054664;28;20024;-75
2021/08/05 03:51:33;;;;;;;0.03;0.03;;;15.30;99.90;;;;;;5054469;28;20068;-75
2021/08/05 03:53:58;;;;;;;0.10;0.10;;;15.10;99.90;;;;;;5054231;28;20112;-75
2021/08/05 03:56:24;;;;;;;0.00;0.00;;;14.90;99.90;;;;;;5055858;28;20432;-75
2021/08/05 03:58:50;;;;;;;0.03;0.03;;;14.80;99.90;;;;;;5055766;28;20025;-75
2021/08/05 04:01:16;;;;;;;0.10;0.10;;;14.80;99.90;;;;;;5054464;28;20051;-75
2021/08/05 04:03:42;;;;;;;0.10;0.10;;;14.70;99.90;;;;;;5054191;28;20029;-75
2021/08/05 04:06:08;;;;;;;0.05;0.05;;;14.70;99.90;;;;;;5055573;28;20099;-75
2021/08/05 04:08:34;;;;;;;0.03;0.03;;;14.60;99.90;;;;;;5054267;28;20068;-75
2021/08/05 04:11:01;;;;;;;0.00;0.00;;;14.60;99.90;;;;;;5054348;28;20091;-75
2021/08/05 04:13:26;;;;;;;0.00;0.00;;;14.70;99.90;;;;;;5055234;28;20096;-75
2021/08/05 04:15:52;;;;;;;0.00;0.00;;;14.60;99.90;;;;;;5054124;28;20048;-75
2021/08/05 04:18:18;;;;;;;0.10;0.10;;;14.60;99.90;;;;;;5055296;28;20473;-75
2021/08/05 04:20:44;;;;;;;0.00;0.00;;;14.60;99.90;;;;;;5054075;28;20071;-75
2021/08/05 04:23:10;;;;;;;0.00;0.00;;;14.70;99.90;;;;;;5053782;28;20017;-75
2021/08/05 04:25:35;;;;;;;0.08;0.08;;;14.60;99.90;;;;;;5054081;28;20017;-75
2021/08/05 04:28:01;;;;;;;0.10;0.10;;;14.50;99.90;;;;;;5053859;28;20393;-75
2021/08/05 04:30:27;;;;;;;0.00;0.00;;;14.40;99.90;;;;;;5037349;28;20033;-75
2021/08/05 04:32:53;;;;;;;0.10;0.10;;;14.30;99.90;;;;;;5054878;28;20483;-75
2021/08/05 04:35:19;;;;;;;0.00;0.00;;;14.30;99.90;;;;;;5037312;28;20049;-75
2021/08/05 04:37:54;;;;;;;0.00;0.00;;;14.40;99.90;;;;;;5053643;28;20021;-75
2021/08/05 04:40:21;;;;;;;0.15;0.15;;;14.40;99.90;;;;;;5055122;28;20025;-75
2021/08/05 04:42:47;;;;;;;0.00;0.00;;;14.40;99.90;;;;;;5036865;28;20507;-75
2021/08/05 04:45:13;;;;;;;0.08;0.08;;;14.40;99.90;;;;;;5053764;28;20025;-75
2021/08/05 04:47:54;;;;;;;0.10;0.10;;;14.30;99.90;;;;;;5036810;28;20373;-75
2021/08/05 04:50:20;;;;;;;0.00;0.00;;;14.40;99.90;;;;;;5053450;28;20036;-75
2021/08/05 04:52:46;;;;;;;0.10;0.10;;;14.40;99.90;;;;;;5053110;28;20017;-75
2021/08/05 04:55:12;;;;;;;0.03;0.03;;;14.40;99.90;;;;;;5053685;28;20483;-75
2021/08/05 04:57:49;;;;;;;0.10;0.10;;;14.30;99.90;;;;;;5054554;28;20029;-75
2021/08/05 05:00:22;;;;;;;0.15;0.15;;;14.30;99.90;;;;;;5053237;28;20392;-75
2021/08/05 05:02:48;;;;;;;0.00;0.00;;;14.20;99.90;;;;;;5053114;28;20047;-75
2021/08/05 05:05:14;;;;;;;0.10;0.10;;;14.30;99.90;;;;;;5053321;28;20024;-75
2021/08/05 05:07:39;;;;;;;0.10;0.10;;;14.30;99.90;;;;;;5053001;28;20116;-75
2021/08/05 05:10:06;;;;;;;0.00;0.00;;;14.40;99.90;;;;;;5036555;28;20057;-75
2021/08/05 05:12:31;;;;;;;0.10;0.10;;;14.30;99.90;;;;;;5054228;28;20075;-75
2021/08/05 05:14:57;;;;;;;0.10;0.10;;;14.30;99.90;;;;;;5052992;28;20385;-75
2021/08/05 05:17:23;;;;;;;0.05;0.05;;;14.40;99.90;;;;;;5054096;28;20025;-75
2021/08/05 05:19:48;;;;;;;0.10;0.10;;;14.40;99.90;;;;;;5054338;28;20053;-75
2021/08/05 05:22:14;;;;;;;0.10;0.10;;;14.40;99.90;;;;;;5052726;28;20032;-75
2021/08/05 05:24:40;;;;;;;0.20;0.20;;;14.60;99.90;;;;;;5053942;28;20078;-75
2021/08/05 05:27:05;;;;;;;0.00;0.00;;;14.60;99.90;;;;;;5054142;28;20036;-75
2021/08/05 05:29:31;;;;;;;0.10;0.10;;;14.60;99.90;;;;;;5052542;28;20040;-76
2021/08/05 05:31:57;;;;;;;0.00;0.00;;;14.60;99.90;;;;;;5035983;28;20396;-75
2021/08/05 05:34:22;;;;;;;0.10;0.10;;;14.50;99.90;;;;;;5052555;28;20028;-75
2021/08/05 05:36:48;;;;;;;0.05;0.05;;;14.50;99.90;;;;;;5053984;28;20025;-76
2021/08/05 05:39:14;;;;;;;0.00;0.00;;;14.50;99.90;;;;;;5053850;28;20033;-75
2021/08/05 05:41:40;;;;;;;0.10;0.10;;;14.50;99.90;;;;;;5049475;28;20035;-75
2021/08/05 05:44:06;;;;;;;0.00;0.00;;;14.60;99.90;;;;;;5042190;28;20076;-75
2021/08/05 05:46:32;;;;;;;0.00;0.00;;;14.60;99.90;;;;;;5044984;28;20086;-75
2021/08/05 05:48:57;;;;;;;0.00;0.00;;;14.50;99.90;;;;;;5049855;28;20350;-75
2021/08/05 05:51:23;;;;;;;0.00;0.00;;;14.50;99.90;;;;;;5049572;28;20075;-75
2021/08/05 05:53:49;;;;;;;0.15;0.15;;;14.50;99.90;;;;;;5037849;28;20383;-75
2021/08/05 05:56:15;;;;;;;0.10;0.10;;;14.50;99.90;;;;;;5033578;28;20416;-75
2021/08/05 05:58:41;;;;;;;0.10;0.10;;;14.50;99.90;;;;;;5033332;28;20025;-75
2021/08/05 06:01:06;;;;;;;0.00;0.00;;;14.40;99.90;;;;;;5031989;28;20025;-75
2021/08/05 06:03:32;;;;;;;0.10;0.10;;;14.50;99.90;;;;;;5033192;28;20120;-75
2021/08/05 06:05:58;;;;;;;0.05;0.05;;;14.50;99.90;;;;;;5045380;28;20059;-75
2021/08/05 06:08:24;;;;;;;0.00;0.00;;;14.60;99.90;;;;;;5038576;28;20017;-75
2021/08/05 06:10:49;;;;;;;0.10;0.10;;;14.50;99.90;;;;;;5031503;28;20021;-75
2021/08/05 06:13:15;;;;;;;0.47;0.47;;;14.40;99.90;;;;;;5031642;28;20029;-75
2021/08/05 06:15:41;;;;;;;0.00;0.00;;;14.30;99.90;;;;;;5031936;28;20022;-75
2021/08/05 06:18:06;;;;;;;0.10;0.10;;;14.30;99.90;;;;;;5032919;28;20432;-75
2021/08/05 06:20:32;;;;;;;2.35;0.95;;;14.30;99.90;;;;;;5031246;28;20115;-75
2021/08/05 06:22:58;;;;;;;0.25;0.25;;;14.20;99.90;;;;;;5013574;28;20492;-75
2021/08/05 06:25:24;;;;;;;0.10;0.10;;;14.30;99.90;;;;;;5031438;28;20545;-75
2021/08/05 06:27:50;;;;;;;0.22;0.22;;;14.20;99.90;;;;;;5030758;28;20489;-75
2021/08/05 06:30:16;;;;;;;0.10;0.10;;;14.20;99.90;;;;;;5033142;28;20025;-75
2021/08/05 06:32:42;;;;;;;0.10;0.10;;;14.20;99.90;;;;;;5032885;28;20289;-75
2021/08/05 06:35:09;;;;;;;0.00;0.00;;;14.40;99.90;;;;;;5045070;28;20405;-75
2021/08/05 06:37:35;;;;;;;0.45;0.22;;;14.50;99.90;;;;;;5033059;28;20056;-75
2021/08/05 06:40:04;;;;;;;0.00;0.00;;;14.50;99.90;;;;;;5037964;28;20029;-75
2021/08/05 06:42:32;;;;;;;0.10;0.10;;;14.40;99.90;;;;;;5045574;28;20033;-75
2021/08/05 06:44:58;;;;;;;0.55;0.55;;;14.50;99.90;;;;;;5025203;28;20025;-75
2021/08/05 06:47:24;;;;;;;0.00;0.00;;;14.50;99.90;;;;;;5028671;28;20043;-75
2021/08/05 06:49:50;;;;;;;0.08;0.08;;;14.40;99.90;;;;;;5040465;28;20064;-75
2021/08/05 06:52:16;;;;;;;0.63;0.45;;;14.40;99.90;;;;;;5040631;28;20044;-75
2021/08/05 06:54:41;;;;;;;0.20;0.20;;;14.30;99.90;;;;;;5041024;28;20025;-75
2021/08/05 06:57:07;;;;;;;0.10;0.10;;;14.40;99.90;;;;;;5037423;28;20025;-75
2021/08/05 06:59:33;;;;;;;0.20;0.20;;;14.20;99.90;;;;;;5041898;28;20360;-76
2021/08/05 07:02:00;;;;;;;0.20;0.20;;;14.10;99.90;;;;;;5021475;28;20074;-76
2021/08/05 07:04:26;;;;;;;0.10;0.10;;;14.10;99.90;;;;;;5032888;28;20117;-75
2021/08/05 07:06:52;;;;;;;0.00;0.00;;;14.00;99.90;;;;;;5040254;28;20449;-76
2021/08/05 07:09:18;;;;;;;0.17;0.17;;;14.10;99.90;;;;;;5042834;28;20100;-76
2021/08/05 07:11:43;;;;;;;0.20;0.20;;;14.20;99.90;;;;;;5014371;28;20021;-75
2021/08/05 07:14:10;;;;;;;0.05;0.05;;;14.10;99.90;;;;;;5042705;28;20203;-76
2021/08/05 07:16:36;;;;;;;0.00;0.00;;;14.20;99.90;;;;;;5043306;28;20029;-75
2021/08/05 07:19:02;;;;;;;0.43;0.43;;;14.40;99.90;;;;;;5026679;28;20038;-75
2021/08/05 07:21:27;;;;;;;0.00;0.00;;;14.40;99.90;;;;;;5029750;28;20029;-75
2021/08/05 07:23:53;;;;;;;0.10;0.10;;;14.40;99.90;;;;;;5043617;28;20162;-76
2021/08/05 07:26:19;;;;;;;0.00;0.00;;;14.30;99.90;;;;;;5045833;28;20029;-76
2021/08/05 07:28:45;;;;;;;0.40;0.30;;;14.30;99.90;;;;;;5043996;28;20044;-75
2021/08/05 07:31:11;;;;;;;0.30;0.30;;;14.20;99.90;;;;;;5029456;28;20540;-75
2021/08/05 07:33:36;;;;;;;0.00;0.00;;;14.00;99.90;;;;;;5041130;28;20132;-75
2021/08/05 07:36:02;;;;;;;0.10;0.10;;;14.10;99.90;;;;;;5034605;28;20032;-75
2021/08/05 07:38:28;;;;;;;0.10;0.10;;;14.10;99.90;;;;;;5022303;28;20032;-75
2021/08/05 07:40:54;;;;;;;0.00;0.00;;;14.20;99.90;;;;;;5039493;28;20116;-75
2021/08/05 07:43:19;;;;;;;0.17;0.17;;;14.10;99.90;;;;;;5023348;28;20029;-75
2021/08/05 07:45:45;;;;;;;0.20;0.20;;;14.20;99.90;;;;;;5049641;28;20025;-75
2021/08/05 07:48:11;;;;;;;0.38;0.30;;;14.10;99.90;;;;;;5049304;28;20025;-75
2021/08/05 07:50:37;;;;;;;0.10;0.10;;;14.10;99.90;;;;;;5041086;28;20104;-75
2021/08/05 07:53:03;;;;;;;0.00;0.00;;;14.20;99.90;;;;;;5043949;28;20100;-75
2021/08/05 07:55:30;;;;;;;0.00;0.00;;;14.30;99.90;;;;;;5035913;28;20075;-75
2021/08/05 07:57:56;;;;;;;0.10;0.10;;;14.50;99.90;;;;;;5034444;28;20078;-75
2021/08/05 08:00:22;;;;;;;0.10;0.10;;;14.60;99.90;;;;;;5037292;28;20330;-75
2021/08/05 08:02:47;;;;;;;0.10;0.10;;;14.60;99.90;;;;;;5044243;28;20021;-75
2021/08/05 08:05:14;;;;;;;0.00;0.00;;;14.60;99.90;;;;;;5045721;28;20025;-75
2021/08/05 08:07:41;;;;;;;0.10;0.10;;;14.60;99.90;;;;;;5038530;28;20516;-75
2021/08/05 08:10:08;;;;;;;0.00;0.00;;;14.80;99.90;;;;;;5038737;28;20112;-75
2021/08/05 08:12:34;;;;;;;0.65;0.30;;;14.60;99.90;;;;;;5038750;28;20064;-75
2021/08/05 08:15:00;;;;;;;0.00;0.00;;;14.80;99.90;;;;;;5026256;28;20025;-76
2021/08/05 08:17:26;;;;;;;0.10;0.10;;;14.70;99.90;;;;;;5030219;28;20469;-75
2021/08/05 08:19:52;;;;;;;0.30;0.30;;;14.70;99.90;;;;;;5032877;28;20067;-75
2021/08/05 08:22:18;;;;;;;0.00;0.00;;;14.60;99.90;;;;;;5033571;28;20400;-75
2021/08/05 08:24:43;;;;;;;0.55;0.55;;;14.60;99.90;;;;;;5035098;28;20022;-75
2021/08/05 08:27:09;;;;;;;0.03;0.03;;;14.60;99.90;;;;;;5031686;28;20030;-75
2021/08/05 08:29:35;;;;;;;0.13;0.13;;;14.50;99.90;;;;;;5022421;28;20029;-75
2021/08/05 08:32:01;;;;;;;0.10;0.10;;;14.60;99.90;;;;;;5044187;28;20389;-75
2021/08/05 08:34:27;;;;;;;0.13;0.13;;;14.60;99.90;;;;;;5040880;28;20032;-75
2021/08/05 08:36:52;;;;;;;0.82;0.82;;;14.60;99.90;;;;;;5039606;28;20029;-76
2021/08/05 08:39:21;;;;;;;0.00;0.00;;;14.70;99.90;;;;;;5038704;28;20120;-75
2021/08/05 08:41:46;;;;;;;0.10;0.10;;;14.50;99.90;;;;;;5046395;28;20036;-76
2021/08/05 08:44:14;;;;;;;0.10;0.10;;;14.60;99.90;;;;;;5048685;28;20029;-75
2021/08/05 08:46:41;;;;;;;0.10;0.10;;;14.40;99.90;;;;;;5041266;28;20495;-75
2021/08/05 08:49:08;;;;;;;0.32;0.32;;;14.40;99.90;;;;;;5042364;28;20062;-76
2021/08/05 08:51:34;;;;;;;1.13;1.02;;;14.30;99.90;;;;;;5045943;28;20099;-76
2021/08/05 08:54:09;;;;;;;1.50;0.68;;;14.40;99.90;;;;;;5022866;28;20509;-75
2021/08/05 08:56:38;;;;;;;0.10;0.10;;;14.30;99.90;;;;;;5040405;28;20025;-75
2021/08/05 08:59:06;;;;;;;0.05;0.05;;;14.50;99.90;;;;;;5047468;28;20013;-75
2021/08/05 09:01:39;;;;;;;0.10;0.10;;;14.70;99.90;;;;;;5041531;28;20160;-75
2021/08/05 09:04:08;;;;;;;0.10;0.10;;;14.70;99.90;;;;;;5048172;28;20461;-75
2021/08/05 09:06:35;;;;;;;0.00;0.00;;;15.00;99.90;;;;;;5040857;28;20486;-75
2021/08/05 09:09:04;;;;;;;8.23;0.85;;;15.00;99.90;;;;;;5043091;28;20389;-75
2021/08/05 09:11:29;;;;;;;0.10;0.10;;;14.90;99.90;;;;;;5040412;28;20021;-75
2021/08/05 09:13:55;;;;;;;0.10;0.10;;;14.90;99.90;;;;;;5048033;28;20024;-75
2021/08/05 09:16:23;;;;;;;0.38;0.38;;;15.10;99.90;;;;;;5040801;28;20021;-75
2021/08/05 09:18:49;;;;;;;0.17;0.17;;;15.40;99.90;;;;;;5047773;28;20423;-75
2021/08/05 09:21:15;;;;;;;16.65;1.85;;;15.40;99.90;;;;;;5041911;28;20104;-75
2021/08/05 09:23:53;;;;;;;0.55;0.55;;;15.70;99.90;;;;;;5041557;28;20026;-75
2021/08/05 09:26:33;;;;;;;0.10;0.10;;;15.90;99.90;;;;;;5034840;28;20021;-75
2021/08/05 09:29:06;;;;;;;0.10;0.10;;;16.00;99.90;;;;;;5036374;28;20061;-75
2021/08/05 09:31:33;;;;;;;0.20;0.20;;;16.00;99.90;;;;;;5022318;28;20182;-75
2021/08/05 09:34:06;;;;;;;3.28;0.32;;;15.90;99.90;;;;;;5031082;28;20362;-75
2021/08/05 09:36:32;;;;;;;0.05;0.05;;;15.80;99.90;;;;;;5016814;28;20024;-75
2021/08/05 09:38:59;;;;;;;3.92;1.20;;;15.90;99.90;;;;;;5041842;28;20029;-75
2021/08/05 09:41:24;;;;;;;0.52;0.52;;;15.90;99.90;;;;;;5047241;28;20022;-75
2021/08/05 09:44:00;;;;;;;0.10;0.10;;;16.00;99.90;;;;;;5046371;28;20139;-76
2021/08/05 09:46:31;;;;;;;0.60;0.45;;;16.40;99.90;;;;;;5039144;28;20095;-75
2021/08/05 09:48:57;;;;;;;1.53;0.93;;;16.20;99.90;;;;;;5031313;28;20026;-75
2021/08/05 09:51:23;;;;;;;0.10;0.10;;;16.20;99.90;;;;;;5043860;28;20057;-76
2021/08/05 09:53:56;;;;;;;0.10;0.10;;;16.60;99.90;;;;;;5041372;28;20138;-76
2021/08/05 09:56:23;;;;;;;5.00;0.52;;;16.70;99.90;;;;;;5020103;28;20029;-76
2021/08/05 09:58:49;;;;;;;0.68;0.40;;;17.10;99.90;;;;;;5037096;28;20017;-76
2021/08/05 10:01:16;;;;;;;1.42;0.43;;;17.00;99.90;;;;;;5037591;28;20026;-75
2021/08/05 10:03:41;;;;;;;0.20;0.20;;;17.20;99.90;;;;;;5030822;28;20116;-75
2021/08/05 10:06:07;;;;;;;0.10;0.10;;;17.10;99.90;;;;;;5043012;28;20113;-75
2021/08/05 10:08:33;;;;;;;0.60;0.57;;;17.10;99.90;;;;;;5039529;28;20021;-75
2021/08/05 10:10:59;;;;;;;0.30;0.30;;;17.50;99.90;;;;;;5028869;28;20037;-75
2021/08/05 10:13:36;;;;;;;1.73;0.63;;;17.40;99.90;;;;;;5035569;28;20048;-75
2021/08/05 10:16:09;;;;;;;1.75;0.85;;;17.50;99.90;;;;;;5049177;28;20032;-76
2021/08/05 10:18:39;;;;;;;0.85;0.50;;;17.80;99.90;;;;;;5036879;28;20416;-75
2021/08/05 10:21:07;;;;;;;2.22;0.80;;;17.90;99.90;;;;;;5035540;28;20028;-74
2021/08/05 10:23:36;;;;;;;0.10;0.10;;;18.20;99.90;;;;;;5032389;28;20430;-75
2021/08/05 10:26:07;;;;;;;0.73;0.73;;;18.50;99.90;;;;;;5031257;28;20026;-75
2021/08/05 10:28:34;;;;;;;0.10;0.10;;;18.40;99.90;;;;;;5036682;28;20035;-75
2021/08/05 10:31:00;;;;;;;0.10;0.10;;;18.30;99.90;;;;;;5050589;28;20056;-74
2021/08/05 10:33:26;;;;;;;0.10;0.10;;;18.60;99.90;;;;;;5042586;28;20036;-75
2021/08/05 10:35:52;;;;;;;0.10;0.10;;;18.40;99.90;;;;;;5036152;28;20017;-75
2021/08/05 10:38:20;;;;;;;0.10;0.10;;;18.30;99.90;;;;;;5034803;28;20036;-75
2021/08/05 10:40:48;;;;;;;0.10;0.10;;;18.50;99.90;;;;;;5039599;28;20044;-75
2021/08/05 10:43:14;;;;;;;0.10;0.10;;;18.50;99.90;;;;;;5042077;28;20022;-75
2021/08/05 10:45:40;;;;;;;0.05;0.05;;;18.20;99.90;;;;;;5035935;28;20021;-75
2021/08/05 10:48:07;;;;;;;0.80;0.80;;;18.20;99.90;;;;;;5037092;28;20033;-75
2021/08/05 10:50:40;;;;;;;0.22;0.22;;;18.10;99.90;;;;;;5030649;28;20059;-75
2021/08/05 10:53:13;;;;;;;0.00;0.00;;;17.80;99.90;;;;;;5042901;28;20043;-75
2021/08/05 10:55:41;;;;;;;0.25;0.25;;;17.70;99.90;;;;;;5035274;28;20539;-75
2021/08/05 10:58:14;;;;;;;0.10;0.10;;;17.70;99.90;;;;;;5042789;28;20052;-75
2021/08/05 11:00:49;;;;;;;0.68;0.68;;;17.80;99.90;;;;;;5036691;28;20025;-75
2021/08/05 11:03:36;;;;;;;0.25;0.25;;;18.40;99.90;;;;;;5030525;28;20110;-75
2021/08/05 11:06:08;;;;;;;0.10;0.10;;;18.50;99.90;;;;;;5031079;28;20031;-75
2021/08/05 11:08:34;;;;;;;8.77;0.90;;;18.50;99.90;;;;;;5033479;28;20389;-75
2021/08/05 11:11:22;;;;;;;0.40;0.40;;;18.50;99.90;;;;;;5039228;28;20025;-75
2021/08/05 11:14:00;;;;;;;0.10;0.10;;;18.50;99.90;;;;;;5035567;28;20017;-75
2021/08/05 11:16:51;;;;;;;0.20;0.20;;;18.20;99.90;;;;;;5029470;28;20030;-76
2021/08/05 11:19:38;;;;;;;0.75;0.65;;;18.30;99.90;;;;;;5040632;28;20022;-75
2021/08/05 11:22:34;;;;;;;0.20;0.20;;;18.20;99.90;;;;;;5038070;28;20025;-75
2021/08/05 11:25:00;;;;;;;0.10;0.10;;;18.10;99.90;;;;;;5030707;28;20018;-75
2021/08/05 11:27:26;;;;;;;0.70;0.57;;;18.20;99.90;;;;;;5041911;28;20036;-75
2021/08/05 11:29:52;;;;;;;0.15;0.15;;;18.20;99.90;;;;;;5036295;28;20026;-75
2021/08/05 11:32:21;;;;;;;0.22;0.22;;;18.10;99.90;;;;;;5034304;28;20032;-75
2021/08/05 11:34:56;;;;;;;0.10;0.10;;;17.90;99.90;;;;;;5033782;28;20030;-75
2021/08/05 11:37:22;;;;;;;0.80;0.80;;;17.90;99.90;;;;;;5038767;28;20158;-75
2021/08/05 11:39:50;;;;;;;0.10;0.10;;;17.90;99.90;;;;;;5039481;28;20489;-75
2021/08/05 11:42:18;;;;;;;0.00;0.00;;;18.00;99.90;;;;;;5038615;28;20469;-75
2021/08/05 11:44:49;;;;;;;0.10;0.10;;;17.90;99.90;;;;;;5044810;28;20017;-75
2021/08/05 11:47:16;;;;;;;0.00;0.00;;;18.10;99.90;;;;;;5024574;28;20037;-75
2021/08/05 11:49:50;;;;;;;0.55;0.55;;;18.20;99.90;;;;;;5034340;28;20032;-75
2021/08/05 11:52:19;;;;;;;0.10;0.10;;;18.20;99.90;;;;;;5042958;28;20025;-75
2021/08/05 11:55:23;;;;;;;0.30;0.30;;;18.50;99.90;;;;;;5025579;28;20170;-75
2021/08/05 11:57:58;;;;;;;0.20;0.20;;;19.10;99.90;;;;;;5042070;28;20025;-75
2021/08/05 12:00:27;;;;;;;0.05;0.05;;;19.30;99.90;;;;;;5042690;28;20036;-75
2021/08/05 12:03:01;;;;;;;0.30;0.30;;;19.70;99.90;;;;;;5042072;28;20516;-75
2021/08/05 12:05:38;;;;;;;0.17;0.17;;;20.20;99.90;;;;;;5043406;28;20049;-75
2021/08/05 12:08:05;;;;;;;0.40;0.40;;;20.10;99.90;;;;;;5049542;28;20025;-75
2021/08/05 12:10:33;;;;;;;0.45;0.38;;;19.90;99.90;;;;;;5043711;28;20062;-75
2021/08/05 12:13:06;;;;;;;0.22;0.22;;;20.10;99.90;;;;;;5037146;28;20021;-75
2021/08/05 12:15:34;;;;;;;0.20;0.20;;;19.70;99.90;;;;;;5042758;28;20037;-75
2021/08/05 12:18:05;;;;;;;0.10;0.10;;;19.50;99.90;;;;;;5022550;28;20027;-75
2021/08/05 12:20:40;;;;;;;0.35;0.32;;;19.50;99.90;;;;;;5048048;28;20050;-75
2021/08/05 12:23:09;;;;;;;0.10;0.10;;;19.40;99.90;;;;;;5029965;28;20036;-76
2021/08/05 12:25:46;;;;;;;0.10;0.10;;;19.60;99.90;;;;;;5021382;28;20025;-75
2021/08/05 12:28:16;;;;;;;0.52;0.47;;;19.80;99.90;;;;;;5042321;28;20111;-76
2021/08/05 12:30:47;;;;;;;0.03;0.03;;;19.90;99.90;;;;;;5042376;28;20535;-75
2021/08/05 12:33:36;;;;;;;0.32;0.32;;;19.90;99.90;;;;;;5038142;28;20026;-76
2021/08/05 12:36:12;;;;;;;0.00;0.00;;;20.10;99.90;;;;;;5015692;28;20389;-75
2021/08/05 12:38:59;;;;;;;0.08;0.08;;;20.60;99.90;;;;;;5045818;28;20052;-76
2021/08/05 12:41:47;;;;;;;0.13;0.13;;;20.40;99.90;;;;;;5029519;28;20132;-75
2021/08/05 12:44:19;;;;;;;0.10;0.10;;;20.00;99.90;;;;;;5033680;28;20437;-75
2021/08/05 12:46:47;;;;;;;0.30;0.30;;;20.10;99.90;;;;;;5045271;28;20391;-75
2021/08/05 12:49:13;;;;;;;0.10;0.10;;;20.00;99.90;;;;;;5041466;28;20032;-75
2021/08/05 12:51:39;;;;;;;0.10;0.10;;;20.20;99.90;;;;;;5043859;28;20032;-75
2021/08/05 12:54:16;;;;;;;1.15;0.82;;;20.30;99.90;;;;;;5043314;28;20095;-75